Time;durP1;ratioP1;P1;durP2;ratioP2;P2;SDS_P1;SDS_P2;PMS_P1;PMS_P2;Temp;Humidity;BMP_temperature;BMP_pressure;BME280_temperature;BME280_humidity;BME280_pressure;Samples;Min_cycle;Max_cycle;Signal;HPM_P1;HPM_P2
2021/11/04 00:00:36;;;;;;;20.43;14.40;;;4.00;99.90;;;;;;5023943;28;20200;-60
2021/11/04 00:03:04;;;;;;;23.57;15.43;;;3.90;99.90;;;;;;5038932;28;20220;-61
2021/11/04 00:05:33;;;;;;;24.00;14.77;;;3.80;99.90;;;;;;5037842;28;20260;-61
2021/11/04 00:08:04;;;;;;;28.03;14.40;;;3.80;99.90;;;;;;5039223;28;20731;-61
2021/11/04 00:10:32;;;;;;;27.03;14.90;;;3.80;99.90;;;;;;5049182;28;20570;-61
2021/11/04 00:13:01;;;;;;;20.77;14.80;;;3.80;99.90;;;;;;5040354;28;20255;-61
2021/11/04 00:15:30;;;;;;;21.50;15.30;;;3.80;99.90;;;;;;5040511;28;20243;-61
2021/11/04 00:17:59;;;;;;;22.40;15.03;;;3.70;99.90;;;;;;5042338;28;20258;-61
2021/11/04 00:20:28;;;;;;;21.23;14.43;;;3.70;99.90;;;;;;5047111;28;20196;-61
2021/11/04 00:22:57;;;;;;;25.87;16.13;;;3.70;99.90;;;;;;5040551;28;20254;-61
2021/11/04 00:25:25;;;;;;;22.90;15.63;;;3.60;99.90;;;;;;5047181;28;20545;-61
2021/11/04 00:27:53;;;;;;;22.17;15.50;;;3.60;99.90;;;;;;5046936;28;20778;-61
2021/11/04 00:30:22;;;;;;;30.07;16.70;;;3.50;99.90;;;;;;5039422;28;20229;-61
2021/11/04 00:32:52;;;;;;;33.47;18.23;;;3.50;99.90;;;;;;5037242;28;20196;-61
2021/11/04 00:35:23;;;;;;;27.53;17.13;;;3.50;99.90;;;;;;5040662;28;20292;-61
2021/11/04 00:37:51;;;;;;;27.83;17.57;;;3.40;99.90;;;;;;5042472;28;20254;-61
2021/11/04 00:40:22;;;;;;;32.83;18.47;;;3.40;99.90;;;;;;5041262;28;20189;-61
2021/11/04 00:42:50;;;;;;;34.87;18.50;;;3.30;99.90;;;;;;5040086;28;20288;-61
2021/11/04 00:45:21;;;;;;;28.30;17.80;;;3.30;99.90;;;;;;5040874;28;20335;-61
2021/11/04 00:47:50;;;;;;;34.60;18.17;;;3.20;99.90;;;;;;5050696;28;20201;-60
2021/11/04 00:50:20;;;;;;;25.20;16.13;;;3.20;99.90;;;;;;5045178;28;20204;-61
2021/11/04 00:52:49;;;;;;;29.80;18.07;;;3.10;99.90;;;;;;5040063;28;20251;-61
2021/11/04 00:55:18;;;;;;;31.40;18.80;;;3.10;99.90;;;;;;5038672;28;20300;-61
2021/11/04 00:57:48;;;;;;;35.30;19.83;;;3.20;99.90;;;;;;5039219;28;20200;-60
2021/11/04 01:00:17;;;;;;;29.37;18.73;;;3.20;99.90;;;;;;5036083;28;20225;-62
2021/11/04 01:03:11;;;;;;;27.83;17.40;;;3.20;99.90;;;;;;5081416;28;20679;-61
2021/11/04 01:05:40;;;;;;;27.90;17.80;;;3.20;99.90;;;;;;5065470;28;20191;-61
2021/11/04 01:08:09;;;;;;;29.63;18.10;;;3.20;99.90;;;;;;5060274;28;20231;-61
2021/11/04 01:10:38;;;;;;;32.03;18.73;;;3.10;99.90;;;;;;5080682;28;20262;-61
2021/11/04 01:13:07;;;;;;;29.07;17.53;;;3.10;99.90;;;;;;5087572;28;20195;-61
2021/11/04 01:15:35;;;;;;;26.67;17.70;;;3.00;99.90;;;;;;5087754;28;20303;-61
2021/11/04 01:18:04;;;;;;;27.17;16.60;;;3.00;99.90;;;;;;5065302;28;20227;-61
2021/11/04 01:20:32;;;;;;;24.07;16.30;;;3.00;99.90;;;;;;5082157;28;20218;-61
2021/11/04 01:23:00;;;;;;;27.97;16.93;;;3.00;99.90;;;;;;5067848;28;20215;-61
2021/11/04 01:25:31;;;;;;;29.20;17.63;;;3.10;99.90;;;;;;5085313;28;20321;-61
2021/11/04 01:28:00;;;;;;;24.93;15.83;;;3.10;99.90;;;;;;5068742;28;20249;-61
2021/11/04 01:30:28;;;;;;;28.33;16.60;;;3.10;99.90;;;;;;5084771;28;20200;-61
2021/11/04 01:32:58;;;;;;;24.77;15.80;;;3.10;99.90;;;;;;5083385;28;20192;-61
2021/11/04 01:35:27;;;;;;;24.37;15.70;;;3.10;99.90;;;;;;5068823;28;20215;-61
2021/11/04 01:37:55;;;;;;;27.77;16.17;;;3.10;99.90;;;;;;5085004;28;20556;-61
2021/11/04 01:40:24;;;;;;;32.07;17.20;;;3.20;99.90;;;;;;5081667;28;20200;-61
2021/11/04 01:42:54;;;;;;;32.77;17.70;;;3.20;99.90;;;;;;5086914;28;20223;-61
2021/11/04 01:45:23;;;;;;;26.77;16.17;;;3.20;99.90;;;;;;5085508;28;20285;-61
2021/11/04 01:47:51;;;;;;;29.43;16.40;;;3.20;99.90;;;;;;5077762;28;20646;-61
2021/11/04 01:50:23;;;;;;;33.27;17.20;;;3.20;99.90;;;;;;5079622;28;20711;-61
2021/11/04 01:52:52;;;;;;;31.60;16.80;;;3.20;99.90;;;;;;5082083;28;20743;-61
2021/11/04 01:55:23;;;;;;;28.27;16.30;;;3.10;99.90;;;;;;5068756;28;20274;-61
2021/11/04 01:57:54;;;;;;;31.57;17.23;;;3.20;99.90;;;;;;5085702;28;20191;-61
2021/11/04 02:00:25;;;;;;;28.83;16.83;;;3.20;99.90;;;;;;5066127;28;20195;-62
2021/11/04 02:02:59;;;;;;;33.23;16.97;;;3.20;99.90;;;;;;5081455;28;20227;-61
2021/11/04 02:05:35;;;;;;;30.73;17.73;;;3.20;99.90;;;;;;5083162;28;20215;-61
2021/11/04 02:08:09;;;;;;;35.97;18.37;;;3.20;99.90;;;;;;5067332;28;20195;-61
2021/11/04 02:10:43;;;;;;;32.87;17.80;;;3.20;99.90;;;;;;5083743;28;20662;-61
2021/11/04 02:13:19;;;;;;;34.03;18.47;;;3.20;99.90;;;;;;5081105;28;20699;-61
2021/11/04 02:15:52;;;;;;;34.10;19.10;;;3.20;99.90;;;;;;5078651;28;20215;-61
2021/11/04 02:18:23;;;;;;;34.13;18.83;;;3.20;99.90;;;;;;5082695;28;20261;-61
2021/11/04 02:21:01;;;;;;;36.67;18.93;;;3.20;99.90;;;;;;5083001;28;20255;-61
2021/11/04 02:23:35;;;;;;;38.57;19.00;;;3.20;99.90;;;;;;5080260;28;20195;-61
2021/11/04 02:26:06;;;;;;;35.43;18.67;;;3.20;99.90;;;;;;5086252;28;20194;-61
2021/11/04 02:28:37;;;;;;;38.13;19.27;;;3.10;99.90;;;;;;5069230;28;20192;-61
2021/11/04 02:31:08;;;;;;;32.73;17.67;;;3.10;99.90;;;;;;5085361;28;20324;-61
2021/11/04 02:33:38;;;;;;;40.70;19.33;;;3.00;99.90;;;;;;5084845;28;20265;-61
2021/11/04 02:36:07;;;;;;;38.63;19.20;;;3.00;99.90;;;;;;5068665;28;20754;-61
2021/11/04 02:38:37;;;;;;;38.77;20.70;;;2.90;99.90;;;;;;5087925;28;20472;-61
2021/11/04 02:41:08;;;;;;;42.00;20.80;;;3.00;99.90;;;;;;5066947;28;20290;-61
2021/11/04 02:43:37;;;;;;;37.80;19.80;;;3.00;99.90;;;;;;5066862;28;20274;-61
2021/11/04 02:46:06;;;;;;;39.13;19.40;;;2.90;99.90;;;;;;5066183;28;20192;-61
2021/11/04 02:48:35;;;;;;;42.43;21.00;;;2.90;99.90;;;;;;5084648;28;20639;-59
2021/11/04 02:51:04;;;;;;;41.20;21.10;;;2.80;99.90;;;;;;5086815;28;20579;-62
2021/11/04 02:53:34;;;;;;;40.37;21.07;;;2.80;99.90;;;;;;5084113;28;20227;-61
2021/11/04 02:56:03;;;;;;;42.47;21.43;;;2.90;99.90;;;;;;5087901;28;20199;-61
2021/11/04 02:58:33;;;;;;;34.83;19.40;;;2.80;99.90;;;;;;5086140;28;20206;-61
2021/11/04 03:01:03;;;;;;;35.63;20.63;;;2.80;99.90;;;;;;5084283;28;20204;-61
2021/11/04 03:03:37;;;;;;;41.30;21.37;;;2.80;99.90;;;;;;5089616;28;20712;-61
2021/11/04 03:06:05;;;;;;;42.13;22.10;;;2.70;99.90;;;;;;5083597;28;20221;-61
2021/11/04 03:08:34;;;;;;;45.20;23.50;;;2.80;99.90;;;;;;5083596;28;20187;-61
2021/11/04 03:11:03;;;;;;;50.53;24.40;;;2.80;99.90;;;;;;5081426;28;20616;-61
2021/11/04 03:13:34;;;;;;;42.67;22.87;;;2.80;99.90;;;;;;5079210;28;20605;-61
2021/11/04 03:16:04;;;;;;;49.03;23.73;;;2.90;99.90;;;;;;5080972;28;20697;-61
2021/11/04 03:18:34;;;;;;;58.53;26.53;;;2.90;99.90;;;;;;5084566;28;20227;-61
2021/11/04 03:21:03;;;;;;;56.13;27.47;;;3.00;99.90;;;;;;5087298;28;20248;-61
2021/11/04 03:23:31;;;;;;;61.97;26.63;;;3.00;99.90;;;;;;5083944;28;20222;-61
2021/11/04 03:26:02;;;;;;;51.07;25.50;;;2.90;99.90;;;;;;5086643;28;20796;-61
2021/11/04 03:28:32;;;;;;;57.07;25.90;;;2.90;99.90;;;;;;5080998;28;20207;-61
2021/11/04 03:31:03;;;;;;;56.03;26.10;;;2.90;99.90;;;;;;5084877;28;20199;-61
2021/11/04 03:33:32;;;;;;;50.30;24.50;;;2.90;99.90;;;;;;5086453;28;20558;-61
2021/11/04 03:36:02;;;;;;;56.73;25.20;;;2.90;99.90;;;;;;5087981;28;20199;-61
2021/11/04 03:38:32;;;;;;;62.47;27.53;;;2.80;99.90;;;;;;5084159;28;20282;-61
2021/11/04 03:41:01;;;;;;;60.60;28.73;;;2.80;99.90;;;;;;5086770;28;20195;-61
2021/11/04 03:43:30;;;;;;;60.70;27.53;;;2.90;99.90;;;;;;5086366;28;22063;-61
2021/11/04 03:46:00;;;;;;;68.77;27.20;;;2.90;99.90;;;;;;5085142;28;20216;-61
2021/11/04 03:48:29;;;;;;;72.10;28.27;;;2.90;99.90;;;;;;5083780;28;20230;-61
2021/11/04 03:50:59;;;;;;;52.17;26.50;;;2.90;99.90;;;;;;5084506;28;20206;-61
2021/11/04 03:53:27;;;;;;;64.03;29.57;;;3.00;99.90;;;;;;5085938;28;20275;-61
2021/11/04 03:55:56;;;;;;;62.10;29.33;;;3.00;99.90;;;;;;5086950;28;20799;-61
2021/11/04 03:58:28;;;;;;;50.80;26.40;;;3.20;99.90;;;;;;5084231;28;20265;-61
2021/11/04 04:00:57;;;;;;;46.20;23.90;;;3.20;99.90;;;;;;5078117;28;20249;-61
2021/11/04 04:03:28;;;;;;;52.17;24.80;;;3.20;99.90;;;;;;5086781;28;20199;-61
2021/11/04 04:06:00;;;;;;;45.20;23.00;;;3.20;99.90;;;;;;5084962;28;20195;-61
2021/11/04 04:08:30;;;;;;;50.17;23.87;;;3.10;99.90;;;;;;5081950;28;20245;-61
2021/11/04 04:10:59;;;;;;;51.00;24.03;;;3.10;99.90;;;;;;5085497;28;20230;-61
2021/11/04 04:13:27;;;;;;;54.23;24.80;;;3.10;99.90;;;;;;5066924;28;20195;-61
2021/11/04 04:15:56;;;;;;;70.60;25.70;;;3.10;99.90;;;;;;5068281;28;20654;-61
2021/11/04 04:18:25;;;;;;;53.40;26.00;;;3.10;99.90;;;;;;5064264;28;20723;-61
2021/11/04 04:20:55;;;;;;;55.47;25.30;;;3.10;99.90;;;;;;5081479;28;20195;-61
2021/11/04 04:23:23;;;;;;;57.50;26.60;;;3.20;99.90;;;;;;5084171;28;20764;-61
2021/11/04 04:25:52;;;;;;;52.37;25.77;;;3.10;99.90;;;;;;5060481;28;20204;-61
2021/11/04 04:28:20;;;;;;;48.67;24.03;;;3.10;99.90;;;;;;5080316;28;20211;-61
2021/11/04 04:30:49;;;;;;;52.90;24.97;;;3.10;99.90;;;;;;5085764;28;20200;-61
2021/11/04 04:33:17;;;;;;;70.70;24.40;;;3.10;99.90;;;;;;5078745;28;20250;-61
2021/11/04 04:35:46;;;;;;;51.63;24.80;;;3.00;99.90;;;;;;5083382;28;20223;-60
2021/11/04 04:38:16;;;;;;;47.20;22.93;;;3.00;99.90;;;;;;5083660;28;20246;-61
2021/11/04 04:40:44;;;;;;;49.70;24.10;;;2.90;99.90;;;;;;5063901;28;20202;-61
2021/11/04 04:43:12;;;;;;;55.27;23.40;;;2.80;99.90;;;;;;5078533;28;20693;-61
2021/11/04 04:45:41;;;;;;;52.50;24.20;;;2.80;99.90;;;;;;5064438;28;20657;-61
2021/11/04 04:48:11;;;;;;;47.37;24.53;;;2.80;99.90;;;;;;5080114;28;20230;-61
2021/11/04 04:50:40;;;;;;;52.50;24.03;;;2.80;99.90;;;;;;5080650;28;20214;-61
2021/11/04 04:53:09;;;;;;;70.30;25.53;;;2.80;99.90;;;;;;5077818;28;20726;-61
2021/11/04 04:55:41;;;;;;;105.43;26.10;;;2.80;99.90;;;;;;5080528;28;20195;-61
2021/11/04 04:58:10;;;;;;;80.53;26.00;;;2.70;99.90;;;;;;5080521;28;20247;-61
2021/11/04 05:00:39;;;;;;;58.33;23.70;;;2.60;99.90;;;;;;5079495;28;20222;-61
2021/11/04 05:03:08;;;;;;;45.77;23.17;;;2.50;99.90;;;;;;5063307;28;20291;-61
2021/11/04 05:05:36;;;;;;;48.40;22.37;;;2.40;99.90;;;;;;5082618;28;20188;-61
2021/11/04 05:08:05;;;;;;;43.67;23.07;;;2.30;99.90;;;;;;5077690;28;20282;-61
2021/11/04 05:10:34;;;;;;;46.37;22.53;;;2.30;99.90;;;;;;5084174;28;20226;-61
2021/11/04 05:13:04;;;;;;;71.93;24.30;;;2.30;99.90;;;;;;5078828;28;20199;-61
2021/11/04 05:15:33;;;;;;;60.90;26.10;;;2.40;99.90;;;;;;5076710;28;20230;-61
2021/11/04 05:18:01;;;;;;;63.13;27.83;;;2.30;99.90;;;;;;5097095;28;20247;-61
2021/11/04 05:20:30;;;;;;;63.83;26.33;;;2.40;99.90;;;;;;5080753;28;20230;-61
2021/11/04 05:22:58;;;;;;;55.93;25.73;;;2.40;99.90;;;;;;5058853;28;20271;-61
2021/11/04 05:25:26;;;;;;;69.30;26.07;;;2.40;99.90;;;;;;5080641;28;20195;-61
2021/11/04 05:27:55;;;;;;;51.37;24.23;;;2.40;99.90;;;;;;5062280;28;20218;-60
2021/11/04 05:30:25;;;;;;;58.23;24.60;;;2.30;99.90;;;;;;5081873;28;20207;-61
2021/11/04 05:32:53;;;;;;;63.00;25.90;;;2.20;99.90;;;;;;5080213;28;20203;-61
2021/11/04 05:35:22;;;;;;;59.67;25.80;;;2.20;99.90;;;;;;5080586;28;20250;-60
2021/11/04 05:37:50;;;;;;;46.37;23.33;;;2.20;99.90;;;;;;5082061;28;20235;-61
2021/11/04 05:40:19;;;;;;;52.80;24.00;;;2.10;99.90;;;;;;5083225;28;20287;-61
2021/11/04 05:42:49;;;;;;;62.33;25.67;;;2.00;99.90;;;;;;5081881;28;20254;-61
2021/11/04 05:45:18;;;;;;;52.17;22.53;;;2.00;99.90;;;;;;5084029;28;20242;-62
2021/11/04 05:47:47;;;;;;;49.10;24.43;;;1.90;99.90;;;;;;5077518;28;20605;-61
2021/11/04 05:50:18;;;;;;;59.93;27.10;;;2.00;99.90;;;;;;5086031;28;20200;-61
2021/11/04 05:52:46;;;;;;;52.30;25.90;;;2.10;99.90;;;;;;5086141;28;20207;-60
2021/11/04 05:55:14;;;;;;;63.90;28.90;;;2.20;99.90;;;;;;5051256;28;20191;-61
2021/11/04 05:57:43;;;;;;;60.27;27.77;;;2.50;99.90;;;;;;5088288;28;20219;-61
2021/11/04 06:00:12;;;;;;;66.03;28.80;;;2.70;99.90;;;;;;5095323;28;20202;-61
2021/11/04 06:02:41;;;;;;;71.17;32.33;;;2.80;99.90;;;;;;5088141;28;20219;-61
2021/11/04 06:05:48;;;;;;;81.73;30.00;;;2.90;99.90;;;;;;5086730;28;20206;-61
2021/11/04 06:08:17;;;;;;;65.97;30.63;;;3.00;99.90;;;;;;5068945;28;20653;-61
2021/11/04 06:10:46;;;;;;;68.30;31.93;;;2.90;99.90;;;;;;5086121;28;20191;-61
2021/11/04 06:13:14;;;;;;;74.07;30.53;;;2.90;99.90;;;;;;5084077;28;20759;-61
2021/11/04 06:15:42;;;;;;;71.93;31.40;;;2.90;99.90;;;;;;5064396;28;20711;-61
2021/11/04 06:18:15;;;;;;;75.07;31.23;;;3.00;99.90;;;;;;5062820;28;20203;-61
2021/11/04 06:20:43;;;;;;;91.47;32.27;;;3.00;99.90;;;;;;5069538;28;20215;-61
2021/11/04 06:23:13;;;;;;;84.97;31.03;;;3.00;99.90;;;;;;5087421;28;20291;-61
2021/11/04 06:25:42;;;;;;;92.70;35.00;;;2.90;99.90;;;;;;5083423;28;20665;-61
2021/11/04 06:28:10;;;;;;;78.33;30.03;;;2.90;99.90;;;;;;5085490;28;20613;-61
2021/11/04 06:30:38;;;;;;;80.13;30.67;;;2.80;99.90;;;;;;5085290;28;20219;-61
2021/11/04 06:33:07;;;;;;;76.30;29.00;;;2.90;99.90;;;;;;5084300;28;20238;-61
2021/11/04 06:35:35;;;;;;;94.00;29.03;;;2.90;99.90;;;;;;5087460;28;20545;-61
2021/11/04 06:38:03;;;;;;;74.57;28.10;;;2.90;99.90;;;;;;5086732;28;20285;-61
2021/11/04 06:40:34;;;;;;;96.13;29.80;;;2.80;99.90;;;;;;5086431;28;20227;-61
2021/11/04 06:43:04;;;;;;;99.03;29.90;;;2.80;99.90;;;;;;5082651;28;20253;-61
2021/11/04 06:45:34;;;;;;;84.13;28.80;;;2.70;99.90;;;;;;5081965;28;20226;-61
2021/11/04 06:48:03;;;;;;;72.97;28.00;;;2.70;99.90;;;;;;5083846;28;20565;-61
2021/11/04 06:50:33;;;;;;;98.17;33.63;;;2.70;99.90;;;;;;5086130;28;20249;-61
2021/11/04 06:53:06;;;;;;;89.47;30.57;;;2.70;99.90;;;;;;5102114;27;20269;-61
2021/11/04 06:55:39;;;;;;;65.57;30.20;;;2.70;99.90;;;;;;5086222;28;20275;-61
2021/11/04 06:58:13;;;;;;;125.07;54.37;;;2.70;99.90;;;;;;5086034;28;20230;-61
2021/11/04 07:00:44;;;;;;;95.73;40.33;;;2.70;99.90;;;;;;5085196;28;20320;-61
2021/11/04 07:03:21;;;;;;;73.93;32.57;;;2.70;99.90;;;;;;5084956;28;20282;-61
2021/11/04 07:05:55;;;;;;;84.70;33.83;;;2.80;99.90;;;;;;5083584;28;20640;-61
2021/11/04 07:08:24;;;;;;;69.83;31.37;;;2.90;99.90;;;;;;5087762;28;20194;-61
2021/11/04 07:10:59;;;;;;;65.37;31.40;;;3.00;99.90;;;;;;5084056;28;20758;-61
2021/11/04 07:13:29;;;;;;;79.87;37.77;;;3.10;99.90;;;;;;5084852;28;20241;-61
2021/11/04 07:15:58;;;;;;;72.67;33.03;;;3.20;99.90;;;;;;5081553;28;20242;-59
2021/11/04 07:18:28;;;;;;;65.20;31.37;;;3.30;99.90;;;;;;5063850;28;20223;-61
2021/11/04 07:21:03;;;;;;;74.17;32.83;;;3.40;99.90;;;;;;5080166;28;20257;-61
2021/11/04 07:23:39;;;;;;;76.87;35.87;;;3.50;99.90;;;;;;5065412;28;20187;-61
2021/11/04 07:26:09;;;;;;;84.20;40.43;;;3.50;99.90;;;;;;5085724;28;20705;-61
2021/11/04 07:28:39;;;;;;;70.80;33.10;;;3.60;99.90;;;;;;5086231;28;20531;-61
2021/11/04 07:31:11;;;;;;;78.00;39.30;;;3.70;99.90;;;;;;5062132;28;20219;-61
2021/11/04 07:33:44;;;;;;;84.13;44.23;;;3.80;99.90;;;;;;5083302;28;20265;-61
2021/11/04 07:36:16;;;;;;;88.83;44.23;;;3.90;99.90;;;;;;5079832;28;20274;-61
2021/11/04 07:38:46;;;;;;;84.07;41.40;;;4.00;99.90;;;;;;5080089;28;20628;-60
2021/11/04 07:41:16;;;;;;;70.83;35.50;;;4.10;99.90;;;;;;5081885;28;20196;-62
2021/11/04 07:43:46;;;;;;;77.03;35.60;;;4.30;99.90;;;;;;5048238;28;20258;-59
2021/11/04 07:46:15;;;;;;;65.33;33.43;;;4.30;99.90;;;;;;5079158;28;20255;-61
2021/11/04 07:48:44;;;;;;;65.10;34.90;;;4.40;99.90;;;;;;5080847;28;20280;-61
2021/11/04 07:51:12;;;;;;;64.50;34.70;;;4.50;99.90;;;;;;5084946;28;20623;-61
2021/11/04 07:53:41;;;;;;;68.30;35.83;;;4.60;99.90;;;;;;5084248;28;20199;-61
2021/11/04 07:56:11;;;;;;;67.63;34.80;;;4.80;99.90;;;;;;5085029;28;20226;-61
2021/11/04 07:58:41;;;;;;;67.30;35.60;;;4.80;99.90;;;;;;5079782;28;20235;-62
2021/11/04 08:01:09;;;;;;;67.57;35.03;;;4.80;99.90;;;;;;5085863;28;20230;-62
2021/11/04 08:03:38;;;;;;;67.40;33.27;;;4.80;99.90;;;;;;5084994;28;20666;-62
2021/11/04 08:06:06;;;;;;;69.20;33.87;;;4.80;99.90;;;;;;5067359;28;20195;-62
2021/11/04 08:08:36;;;;;;;65.50;35.63;;;4.90;99.90;;;;;;5083519;28;20265;-62
2021/11/04 08:11:04;;;;;;;62.80;33.57;;;5.00;99.90;;;;;;5079129;28;20265;-61
2021/11/04 08:13:32;;;;;;;66.57;33.70;;;5.10;99.90;;;;;;5065512;28;20291;-61
2021/11/04 08:16:02;;;;;;;70.93;36.37;;;5.10;99.90;;;;;;5085413;28;20743;-60
2021/11/04 08:18:31;;;;;;;62.37;33.13;;;5.20;99.90;;;;;;5083562;28;20187;-62
2021/11/04 08:20:59;;;;;;;65.57;35.90;;;5.20;99.90;;;;;;5084286;28;20219;-61
2021/11/04 08:23:27;;;;;;;63.83;32.63;;;5.30;99.90;;;;;;5084404;28;20207;-61
2021/11/04 08:25:56;;;;;;;66.90;33.20;;;5.40;99.90;;;;;;5080591;28;20204;-62
2021/11/04 08:28:24;;;;;;;71.07;39.23;;;5.40;99.90;;;;;;5083783;28;20219;-61
2021/11/04 08:30:57;;;;;;;67.40;36.43;;;5.50;99.90;;;;;;5077824;28;20180;-61
2021/11/04 08:33:27;;;;;;;68.87;37.30;;;5.60;99.90;;;;;;5079172;28;20199;-62
2021/11/04 08:35:55;;;;;;;74.73;39.20;;;5.70;99.90;;;;;;5082504;28;20302;-61
2021/11/04 08:38:23;;;;;;;77.07;43.73;;;5.70;99.90;;;;;;5082194;28;20278;-63
2021/11/04 08:40:51;;;;;;;77.07;43.50;;;5.80;99.90;;;;;;5083306;28;20250;-62
2021/11/04 08:43:20;;;;;;;69.77;40.80;;;5.90;99.90;;;;;;5084694;28;20296;-62
2021/11/04 08:45:48;;;;;;;59.20;31.50;;;6.00;99.90;;;;;;5084612;28;20253;-61
2021/11/04 08:48:18;;;;;;;55.73;31.10;;;6.10;99.90;;;;;;5062185;28;20189;-61
2021/11/04 08:50:50;;;;;;;53.03;29.20;;;6.10;99.90;;;;;;5083556;28;20616;-62
2021/11/04 08:53:19;;;;;;;49.33;27.37;;;6.20;99.90;;;;;;5060985;28;20206;-62
2021/11/04 08:55:48;;;;;;;52.00;29.70;;;6.30;99.90;;;;;;5084495;28;20249;-62
2021/11/04 08:58:16;;;;;;;52.80;29.43;;;6.40;99.90;;;;;;5058665;28;20230;-62
2021/11/04 09:00:45;;;;;;;46.20;27.80;;;6.50;99.90;;;;;;5082911;28;20262;-62
2021/11/04 09:03:15;;;;;;;52.43;30.07;;;6.50;99.90;;;;;;5065213;28;20278;-62
2021/11/04 09:05:45;;;;;;;48.00;28.53;;;6.60;99.90;;;;;;5077130;28;20242;-62
2021/11/04 09:08:14;;;;;;;60.20;34.87;;;6.70;99.90;;;;;;5079570;28;20253;-62
2021/11/04 09:10:43;;;;;;;45.77;28.27;;;6.80;99.90;;;;;;5079868;28;20290;-62
2021/11/04 09:13:12;;;;;;;47.40;28.23;;;6.80;99.90;;;;;;5077574;28;20600;-62
2021/11/04 09:15:40;;;;;;;47.93;27.23;;;7.00;99.90;;;;;;5057412;28;20264;-62
2021/11/04 09:18:09;;;;;;;52.03;29.47;;;7.00;99.90;;;;;;5079690;28;20245;-62
2021/11/04 09:20:37;;;;;;;45.33;28.77;;;7.10;99.90;;;;;;5077068;28;20669;-62
2021/11/04 09:23:06;;;;;;;42.43;24.13;;;7.10;99.90;;;;;;5079149;28;20195;-62
2021/11/04 09:25:36;;;;;;;39.93;23.63;;;7.10;99.90;;;;;;5082934;28;20264;-62
2021/11/04 09:28:05;;;;;;;38.83;23.63;;;7.00;99.90;;;;;;5066985;28;20730;-62
2021/11/04 09:30:33;;;;;;;44.70;23.60;;;7.20;99.90;;;;;;5082259;28;21039;-63
2021/11/04 09:33:02;;;;;;;37.33;22.30;;;7.50;99.90;;;;;;5085616;28;20230;-62
2021/11/04 09:35:30;;;;;;;35.67;20.63;;;7.90;99.90;;;;;;5084150;28;20199;-63
2021/11/04 09:37:59;;;;;;;28.43;18.80;;;8.20;99.90;;;;;;5084665;28;20226;-62
2021/11/04 09:40:28;;;;;;;31.07;17.67;;;8.30;99.90;;;;;;5085467;28;20243;-63
2021/11/04 09:42:58;;;;;;;28.17;16.83;;;8.30;99.90;;;;;;5087300;28;20199;-62
2021/11/04 09:45:27;;;;;;;31.47;17.43;;;8.40;99.90;;;;;;5068085;28;20237;-62
2021/11/04 09:47:56;;;;;;;28.93;17.27;;;8.50;99.90;;;;;;5082582;28;20223;-63
2021/11/04 09:50:25;;;;;;;26.10;15.90;;;8.70;99.90;;;;;;5084724;28;20267;-63
2021/11/04 09:52:55;;;;;;;18.27;14.17;;;9.00;99.90;;;;;;5056446;28;20184;-63
2021/11/04 09:55:27;;;;;;;18.70;13.43;;;9.20;99.90;;;;;;5084884;28;20212;-62
2021/11/04 09:57:59;;;;;;;22.63;13.40;;;9.30;99.90;;;;;;5085272;28;20215;-63
2021/11/04 10:00:34;;;;;;;14.97;10.67;;;9.40;99.90;;;;;;5086070;28;20689;-63
2021/11/04 10:03:06;;;;;;;14.60;9.13;;;9.80;99.90;;;;;;5060148;28;20795;-62
2021/11/04 10:05:45;;;;;;;9.80;8.10;;;10.00;99.90;;;;;;5064099;28;20658;-63
2021/11/04 10:08:15;;;;;;;10.33;7.70;;;10.30;99.90;;;;;;5064089;28;20260;-62
2021/11/04 10:10:44;;;;;;;7.53;6.83;;;10.50;99.90;;;;;;5061257;28;20775;-63
2021/11/04 10:13:14;;;;;;;7.50;6.70;;;10.50;99.90;;;;;;5083545;28;20207;-63
2021/11/04 10:15:43;;;;;;;8.77;6.83;;;10.50;99.90;;;;;;5063151;28;20195;-63
2021/11/04 10:18:18;;;;;;;7.63;6.53;;;10.50;99.90;;;;;;5080733;28;21126;-63
2021/11/04 10:21:04;;;;;;;7.77;6.33;;;10.70;99.90;;;;;;5061133;28;20298;-63
2021/11/04 10:23:38;;;;;;;7.70;6.90;;;10.70;99.90;;;;;;5087283;28;20194;-63
2021/11/04 10:26:09;;;;;;;7.40;6.70;;;10.80;99.90;;;;;;5081924;28;20218;-63
2021/11/04 10:28:40;;;;;;;7.67;5.97;;;10.80;99.90;;;;;;5086875;28;20204;-63
2021/11/04 10:31:15;;;;;;;7.87;5.73;;;10.80;99.90;;;;;;5086926;28;20234;-63
2021/11/04 10:33:44;;;;;;;6.00;5.50;;;10.80;99.90;;;;;;5084526;28;20233;-63
2021/11/04 10:36:16;;;;;;;10.07;5.87;;;10.90;99.90;;;;;;5083412;28;20199;-63
2021/11/04 10:38:46;;;;;;;6.27;5.43;;;11.00;99.90;;;;;;5082632;28;20195;-62
2021/11/04 10:41:22;;;;;;;6.27;5.27;;;11.00;99.90;;;;;;5086632;28;20215;-63
2021/11/04 10:43:53;;;;;;;6.47;4.93;;;11.10;99.90;;;;;;5081452;28;20731;-63
2021/11/04 10:46:25;;;;;;;5.27;4.87;;;11.10;99.90;;;;;;5088254;28;20199;-63
2021/11/04 10:48:58;;;;;;;5.57;5.00;;;11.20;99.90;;;;;;5088053;28;20738;-63
2021/11/04 10:51:27;;;;;;;4.90;4.50;;;11.30;99.90;;;;;;5086994;28;20286;-63
2021/11/04 10:53:58;;;;;;;5.27;4.77;;;11.50;99.90;;;;;;5085692;28;20179;-63
2021/11/04 10:56:30;;;;;;;6.57;4.80;;;11.60;99.90;;;;;;5086522;28;20193;-63
2021/11/04 10:59:03;;;;;;;6.57;4.83;;;11.70;99.90;;;;;;5078981;28;20196;-62
2021/11/04 11:01:37;;;;;;;5.90;4.40;;;11.70;99.90;;;;;;5086479;28;20655;-63
2021/11/04 11:04:09;;;;;;;7.37;4.77;;;11.60;99.90;;;;;;5085595;28;20756;-63
2021/11/04 11:06:40;;;;;;;7.90;5.53;;;11.30;99.90;;;;;;5087993;28;20215;-63
2021/11/04 11:09:13;;;;;;;9.83;7.03;;;11.10;99.90;;;;;;5080409;28;20227;-63
2021/11/04 11:11:43;;;;;;;10.17;7.00;;;11.00;99.90;;;;;;5084805;28;20274;-63
2021/11/04 11:14:14;;;;;;;7.83;6.13;;;10.90;99.90;;;;;;5086027;28;20289;-63
2021/11/04 11:16:44;;;;;;;7.60;6.07;;;10.80;99.90;;;;;;5078819;28;20295;-63
2021/11/04 11:19:20;;;;;;;6.03;4.93;;;10.70;99.90;;;;;;5083916;28;20188;-63
2021/11/04 11:21:51;;;;;;;6.03;5.50;;;10.80;99.90;;;;;;5084233;28;20214;-63
2021/11/04 11:24:25;;;;;;;5.80;5.20;;;10.80;99.90;;;;;;5083807;28;20203;-63
2021/11/04 11:26:54;;;;;;;9.67;4.90;;;10.90;99.90;;;;;;5079769;28;20303;-63
2021/11/04 11:29:24;;;;;;;4.83;4.43;;;11.10;99.90;;;;;;5086600;28;20257;-63
2021/11/04 11:31:55;;;;;;;4.87;4.27;;;11.20;99.90;;;;;;5083360;28;20285;-62
2021/11/04 11:34:28;;;;;;;3.87;3.63;;;11.40;99.90;;;;;;5081749;28;20249;-63
2021/11/04 11:37:16;;;;;;;4.00;3.60;;;11.50;99.90;;;;;;5082640;28;20184;-63
2021/11/04 11:40:12;;;;;;;4.70;3.33;;;11.50;99.90;;;;;;5084062;28;20210;-63
2021/11/04 11:42:59;;;;;;;3.20;2.97;;;11.60;99.90;;;;;;5084389;28;20187;-63
2021/11/04 11:45:30;;;;;;;3.13;2.93;;;11.70;99.90;;;;;;5085234;28;20309;-63
2021/11/04 11:48:16;;;;;;;2.70;2.50;;;11.80;99.90;;;;;;5083610;28;20278;-63
2021/11/04 11:50:45;;;;;;;3.30;3.00;;;11.70;99.90;;;;;;5084580;28;20207;-60
2021/11/04 11:53:25;;;;;;;2.87;2.67;;;11.80;99.90;;;;;;5079544;28;20199;-63
2021/11/04 11:55:55;;;;;;;6.17;2.33;;;11.90;99.90;;;;;;5077259;28;20764;-63
2021/11/04 11:58:33;;;;;;;2.50;2.30;;;12.00;99.90;;;;;;5076424;28;20196;-63
2021/11/04 12:01:11;;;;;;;3.77;2.03;;;12.00;99.90;;;;;;5081371;28;20208;-63
2021/11/04 12:03:51;;;;;;;3.37;2.10;;;12.00;99.90;;;;;;5077117;28;20195;-63
2021/11/04 12:06:43;;;;;;;3.93;2.27;;;11.90;99.90;;;;;;5062837;28;20195;-63
2021/11/04 12:09:31;;;;;;;5.43;2.57;;;11.80;99.90;;;;;;5064943;28;20199;-63
2021/11/04 12:11:59;;;;;;;2.40;2.20;;;11.80;99.90;;;;;;5078810;28;20195;-63
2021/11/04 12:14:33;;;;;;;2.87;2.40;;;11.70;99.90;;;;;;5077063;28;20239;-63
2021/11/04 12:17:12;;;;;;;2.97;2.13;;;11.70;99.90;;;;;;5073546;28;20567;-63
2021/11/04 12:19:44;;;;;;;4.43;2.30;;;11.70;99.90;;;;;;5060870;28;20199;-63
2021/11/04 12:22:37;;;;;;;3.07;2.37;;;11.60;99.90;;;;;;5073361;28;20234;-63
2021/11/04 12:25:07;;;;;;;2.60;2.40;;;11.60;99.90;;;;;;5064251;28;20496;-62
2021/11/04 12:27:40;;;;;;;3.33;2.00;;;11.50;99.90;;;;;;5077315;28;20759;-62
2021/11/04 12:30:23;;;;;;;2.60;2.40;;;11.60;99.90;;;;;;5082417;28;20196;-63
2021/11/04 12:33:01;;;;;;;3.63;2.33;;;11.50;99.90;;;;;;5078704;28;20737;-62
2021/11/04 12:35:44;;;;;;;3.53;2.20;;;11.40;99.90;;;;;;5082411;28;20204;-63
2021/11/04 12:38:15;;;;;;;3.47;2.50;;;11.40;99.90;;;;;;5078667;28;20629;-62
2021/11/04 12:40:43;;;;;;;3.03;2.20;;;11.40;99.90;;;;;;5081429;28;20192;-63
2021/11/04 12:43:12;;;;;;;3.53;2.10;;;11.50;99.90;;;;;;5093709;28;20211;-63
2021/11/04 12:45:45;;;;;;;3.87;2.80;;;11.60;99.90;;;;;;5065470;28;20248;-63
2021/11/04 12:48:15;;;;;;;3.33;2.20;;;11.80;99.90;;;;;;5076844;28;20953;-62
2021/11/04 12:50:58;;;;;;;2.63;2.10;;;11.90;99.90;;;;;;5082002;28;20211;-63
2021/11/04 12:53:27;;;;;;;3.30;2.20;;;12.00;99.90;;;;;;5081676;28;20669;-63
2021/11/04 12:55:55;;;;;;;3.23;2.50;;;12.00;99.90;;;;;;5079793;28;20218;-63